Time;durP1;ratioP1;P1;durP2;ratioP2;P2;SDS_P1;SDS_P2;PMS_P1;PMS_P2;Temp;Humidity;BMP_temperature;BMP_pressure;BME280_temperature;BME280_humidity;BME280_pressure;Samples;Min_cycle;Max_cycle;Signal;HPM_P1;HPM_P2
2020/12/06 00:01:30;;;;;;;37.25;23.22;;;;;;;8.87;69.13;99710.67;126605;1098;23324;-74
2020/12/06 00:03:58;;;;;;;36.23;22.13;;;;;;;8.87;68.39;99707.95;126629;1098;23323;-74
2020/12/06 00:06:29;;;;;;;39.23;24.20;;;;;;;8.87;69.10;99714.23;126673;1098;26823;-76
2020/12/06 00:08:57;;;;;;;35.10;22.10;;;;;;;8.84;68.63;99711.92;126589;1098;23379;-76
2020/12/06 00:11:25;;;;;;;37.13;24.37;;;;;;;8.82;68.71;99713.98;126688;1098;23352;-75
2020/12/06 00:13:54;;;;;;;37.47;23.57;;;;;;;8.81;69.00;99716.89;126703;1098;23322;-75
2020/12/06 00:16:22;;;;;;;35.37;24.07;;;;;;;8.78;69.41;99721.69;126701;1098;23390;-76
2020/12/06 00:18:51;;;;;;;38.70;24.75;;;;;;;8.78;69.25;99723.58;126353;1098;26401;-75
2020/12/06 00:21:21;;;;;;;40.97;26.10;;;;;;;8.77;69.50;99717.30;126611;1098;23424;-76
2020/12/06 00:23:50;;;;;;;41.65;26.93;;;;;;;8.75;68.58;99724.81;126682;1098;23379;-75
2020/12/06 00:26:26;;;;;;;45.13;28.40;;;;;;;8.71;69.01;99726.23;126656;1098;23325;-76
2020/12/06 00:28:54;;;;;;;44.90;26.20;;;;;;;8.70;68.90;99716.38;126266;1098;23326;-74
2020/12/06 00:31:22;;;;;;;38.37;23.33;;;;;;;8.70;69.53;99718.27;126660;1098;23404;-76
2020/12/06 00:33:51;;;;;;;33.38;20.92;;;;;;;8.68;69.13;99723.89;126741;1098;23379;-75
2020/12/06 00:36:20;;;;;;;38.30;25.17;;;;;;;8.65;69.09;99721.58;126698;1098;23325;-76
2020/12/06 00:39:06;;;;;;;39.10;23.15;;;;;;;8.62;69.20;99713.82;126711;1099;23363;-76
2020/12/06 00:41:34;;;;;;;42.75;23.47;;;;;;;8.63;69.13;99717.38;126528;1098;23459;-75
2020/12/06 00:44:02;;;;;;;38.20;23.18;;;;;;;8.62;69.29;99713.82;126639;1098;24959;-74
2020/12/06 00:46:33;;;;;;;42.03;24.90;;;;;;;8.61;69.45;99719.44;126694;1098;23392;-75
2020/12/06 00:49:01;;;;;;;37.55;23.75;;;;;;;8.58;69.46;99717.96;126588;1098;23374;-76
2020/12/06 00:51:31;;;;;;;38.87;25.13;;;;;;;8.55;69.43;99705.57;126686;1098;23414;-74
2020/12/06 00:53:59;;;;;;;41.90;24.20;;;;;;;8.53;69.76;99704.09;126603;1098;23782;-77
2020/12/06 00:56:28;;;;;;;35.75;23.47;;;;;;;8.52;70.03;99711.41;126669;1098;23393;-73
2020/12/06 00:58:56;;;;;;;36.10;23.05;;;;;;;8.50;69.83;99704.49;126737;1098;23662;-76
2020/12/06 01:01:25;;;;;;;33.23;21.95;;;;;;;8.50;69.73;99707.20;126590;1098;23362;-74
2020/12/06 01:03:53;;;;;;;40.85;26.12;;;;;;;8.46;69.79;99698.59;126688;1098;23365;-75
2020/12/06 01:06:21;;;;;;;39.65;24.87;;;;;;;8.42;69.78;99701.89;126632;1098;26862;-75
2020/12/06 01:08:50;;;;;;;40.73;26.93;;;;;;;8.38;69.83;99702.27;126657;1098;23376;-75
2020/12/06 01:11:19;;;;;;;36.80;24.77;;;;;;;8.37;70.08;99705.16;126681;1098;23329;-74
2020/12/06 01:13:47;;;;;;;40.83;26.62;;;;;;;8.35;70.57;99697.20;126643;1098;23328;-75
2020/12/06 01:16:15;;;;;;;40.35;25.15;;;;;;;8.33;70.27;99690.28;126664;1098;23414;-74
2020/12/06 01:18:43;;;;;;;42.50;25.62;;;;;;;8.31;70.52;99686.91;126627;1099;24951;-77
2020/12/06 01:21:12;;;;;;;37.57;25.87;;;;;;;8.28;70.18;99688.14;126701;1098;23379;-73
2020/12/06 01:23:41;;;;;;;39.67;26.15;;;;;;;8.28;70.85;99679.99;126673;1098;23321;-77
2020/12/06 01:26:13;;;;;;;36.28;23.98;;;;;;;8.27;70.50;99686.44;126690;1098;26494;-77
2020/12/06 01:28:44;;;;;;;38.20;25.33;;;;;;;8.27;70.64;99688.33;126708;1098;23379;-76
2020/12/06 01:31:12;;;;;;;38.45;25.40;;;;;;;8.25;70.66;99691.23;126624;1098;26859;-78
2020/12/06 01:33:41;;;;;;;38.53;25.12;;;;;;;8.23;70.84;99687.03;126531;1098;23330;-78
2020/12/06 01:36:09;;;;;;;45.38;26.70;;;;;;;8.22;70.69;99694.34;126564;1098;23323;-77
2020/12/06 01:38:37;;;;;;;38.60;25.43;;;;;;;8.22;71.14;99682.64;126593;1098;26494;-76
2020/12/06 01:41:06;;;;;;;38.33;24.87;;;;;;;8.22;71.22;99685.36;126865;1098;26382;-76
2020/12/06 01:43:34;;;;;;;36.58;25.88;;;;;;;8.21;70.91;99695.36;126674;1098;23336;-76
2020/12/06 01:46:02;;;;;;;47.17;28.37;;;;;;;8.21;71.28;99689.09;126618;1098;23360;-79
2020/12/06 01:48:31;;;;;;;44.67;27.67;;;;;;;8.18;71.22;99684.89;126470;1098;23472;-75
2020/12/06 01:50:59;;;;;;;42.35;26.70;;;;;;;8.13;70.32;99684.64;126671;1098;23482;-75
2020/12/06 01:53:27;;;;;;;42.33;28.52;;;;;;;8.10;71.21;99682.29;126676;1098;23424;-76
2020/12/06 01:55:57;;;;;;;36.25;23.50;;;;;;;8.06;71.22;99679.11;126628;1098;23429;-77
2020/12/06 01:58:26;;;;;;;42.33;27.02;;;;;;;8.03;70.60;99674.07;126642;1098;26833;-76
2020/12/06 02:00:54;;;;;;;41.18;24.92;;;;;;;8.00;70.84;99679.90;126606;1098;23325;-76
2020/12/06 02:03:22;;;;;;;39.73;27.20;;;;;;;7.94;71.27;99665.20;126584;1098;23361;-77
2020/12/06 02:05:50;;;;;;;37.15;26.23;;;;;;;7.91;71.25;99657.42;126621;1098;26498;-76
2020/12/06 02:08:19;;;;;;;35.73;23.43;;;;;;;7.88;71.57;99663.24;126635;1098;23363;-76
2020/12/06 02:10:47;;;;;;;34.60;23.55;;;;;;;7.87;71.90;99669.72;126617;1098;23322;-76
2020/12/06 02:13:15;;;;;;;40.20;25.80;;;;;;;7.85;71.97;99666.36;126738;1098;23428;-77
2020/12/06 02:15:43;;;;;;;35.58;24.87;;;;;;;7.82;71.86;99655.02;126659;1098;23469;-77
2020/12/06 02:18:11;;;;;;;36.23;23.87;;;;;;;7.79;71.89;99669.83;126592;1098;23431;-77
2020/12/06 02:20:40;;;;;;;53.30;26.97;;;;;;;7.77;72.18;99666.45;126734;1098;27229;-77
2020/12/06 02:23:10;;;;;;;37.48;26.60;;;;;;;7.75;72.00;99668.52;126610;1098;26565;-79
2020/12/06 02:25:40;;;;;;;35.92;24.90;;;;;;;7.73;71.70;99657.01;126449;1098;26874;-76
2020/12/06 02:28:09;;;;;;;37.42;23.62;;;;;;;7.70;71.96;99666.38;126628;1098;24830;-78
2020/12/06 02:30:37;;;;;;;33.73;21.97;;;;;;;7.67;71.66;99660.48;126552;1098;23336;-79
2020/12/06 02:33:05;;;;;;;36.55;24.55;;;;;;;7.65;71.78;99666.09;126662;1098;23431;-79
2020/12/06 02:35:34;;;;;;;42.05;26.93;;;;;;;7.63;72.02;99654.58;126650;1098;23428;-77
2020/12/06 02:38:02;;;;;;;40.78;26.75;;;;;;;7.60;71.96;99662.28;126631;1098;26443;-77
2020/12/06 02:40:30;;;;;;;36.05;24.12;;;;;;;7.58;72.36;99651.60;126672;1099;23610;-76
2020/12/06 02:42:59;;;;;;;33.13;22.67;;;;;;;7.58;72.65;99653.48;126718;1098;25071;-78
2020/12/06 02:45:27;;;;;;;31.20;19.87;;;;;;;7.52;72.69;99655.91;126663;1099;24805;-76
2020/12/06 02:47:55;;;;;;;40.78;26.68;;;;;;;7.48;72.29;99662.73;126647;1098;23322;-77
2020/12/06 02:50:23;;;;;;;38.75;25.40;;;;;;;7.45;72.37;99654.98;126632;1098;28046;-76
2020/12/06 02:52:57;;;;;;;42.73;26.82;;;;;;;7.42;72.54;99660.77;126673;1098;23324;-76
2020/12/06 02:55:27;;;;;;;40.00;25.37;;;;;;;7.40;71.93;99654.69;126651;1099;23319;-75
2020/12/06 02:57:55;;;;;;;38.83;23.27;;;;;;;7.42;72.43;99651.80;126768;1098;23776;-74
2020/12/06 03:00:23;;;;;;;36.80;23.60;;;;;;;7.39;72.68;99650.31;126726;1098;23375;-75
2020/12/06 03:02:52;;;;;;;37.60;23.90;;;;;;;7.38;72.15;99643.18;126656;1098;23386;-76
2020/12/06 03:05:20;;;;;;;38.13;24.70;;;;;;;7.36;72.29;99659.67;126645;1098;24620;-75
2020/12/06 03:07:48;;;;;;;33.23;23.20;;;;;;;7.35;72.32;99654.42;126621;1098;23325;-77
2020/12/06 03:10:17;;;;;;;37.13;24.17;;;;;;;7.34;72.84;99655.47;126634;1098;26779;-77
2020/12/06 03:12:46;;;;;;;35.55;24.92;;;;;;;7.32;72.93;99652.94;126685;1098;23321;-76
2020/12/06 03:15:14;;;;;;;35.68;25.05;;;;;;;7.31;72.88;99653.11;126606;1098;23374;-79
2020/12/06 03:17:42;;;;;;;36.58;25.57;;;;;;;7.32;72.47;99649.39;126628;1098;23351;-77
2020/12/06 03:20:10;;;;;;;37.67;23.73;;;;;;;7.32;72.87;99649.39;126616;1098;23318;-76
2020/12/06 03:22:39;;;;;;;34.67;19.73;;;;;;;7.33;73.46;99649.17;126622;1098;23463;-76
2020/12/06 03:25:07;;;;;;;39.40;23.83;;;;;;;7.35;72.67;99654.42;126630;1099;23419;-78
2020/12/06 03:27:35;;;;;;;34.58;24.32;;;;;;;7.39;73.63;99653.02;126683;1099;23321;-75
2020/12/06 03:30:03;;;;;;;36.45;23.15;;;;;;;7.41;73.00;99644.70;126674;1098;23414;-76
2020/12/06 03:32:32;;;;;;;31.57;22.77;;;;;;;7.43;72.71;99651.62;126641;1098;23321;-76
2020/12/06 03:35:00;;;;;;;34.35;21.20;;;;;;;7.45;72.91;99654.16;126641;1098;23377;-77
2020/12/06 03:37:28;;;;;;;28.00;19.40;;;;;;;7.45;73.62;99646.84;126616;1098;23382;-78
2020/12/06 03:39:56;;;;;;;30.82;20.45;;;;;;;7.44;73.20;99642.43;126593;1098;24827;-76
2020/12/06 03:42:24;;;;;;;37.95;23.15;;;;;;;7.42;73.17;99643.66;126699;1098;25185;-76
2020/12/06 03:44:53;;;;;;;30.70;22.48;;;;;;;7.43;72.89;99639.92;126567;1098;23437;-76
2020/12/06 03:47:22;;;;;;;32.33;22.90;;;;;;;7.43;72.84;99643.48;126723;1098;23323;-76
2020/12/06 03:49:50;;;;;;;39.05;22.77;;;;;;;7.42;73.71;99636.34;126693;1099;23429;-75
2020/12/06 03:52:18;;;;;;;34.00;22.83;;;;;;;7.43;73.20;99640.77;126713;1098;23390;-76
2020/12/06 03:54:46;;;;;;;37.00;24.15;;;;;;;7.43;73.26;99642.64;126461;1098;23392;-76
2020/12/06 03:57:15;;;;;;;37.25;23.85;;;;;;;7.40;72.84;99643.84;126388;1098;23374;-76
2020/12/06 03:59:43;;;;;;;32.17;23.40;;;;;;;7.39;73.71;99638.62;126407;1098;23325;-75
2020/12/06 04:02:13;;;;;;;32.58;22.82;;;;;;;7.39;73.10;99646.77;126649;1098;26503;-76
2020/12/06 04:04:42;;;;;;;31.15;21.75;;;;;;;7.39;73.55;99653.02;126472;1098;23324;-76
2020/12/06 04:07:11;;;;;;;31.02;23.18;;;;;;;7.38;73.40;99648.61;126709;1098;27076;-75
2020/12/06 04:09:39;;;;;;;37.70;23.00;;;;;;;7.37;73.52;99644.23;126634;1098;26833;-75
2020/12/06 04:12:07;;;;;;;34.63;23.20;;;;;;;7.36;73.77;99648.81;126709;1098;23386;-75
2020/12/06 04:14:35;;;;;;;31.20;21.77;;;;;;;7.38;73.97;99662.17;126648;1098;23800;-76
2020/12/06 04:17:04;;;;;;;30.57;21.40;;;;;;;7.41;73.76;99666.41;126629;1098;23325;-76
2020/12/06 04:19:32;;;;;;;31.05;22.13;;;;;;;7.41;73.37;99661.81;126722;1098;23379;-76
2020/12/06 04:22:05;;;;;;;34.03;22.22;;;;;;;7.42;73.27;99673.50;126606;1098;23321;-77
2020/12/06 04:24:34;;;;;;;32.55;24.32;;;;;;;7.41;73.61;99667.25;126685;1098;23375;-76
2020/12/06 04:27:02;;;;;;;33.38;22.67;;;;;;;7.41;72.98;99672.67;126657;1098;25393;-77
2020/12/06 04:29:31;;;;;;;38.58;25.02;;;;;;;7.41;73.35;99669.95;126638;1098;24167;-75
2020/12/06 04:32:00;;;;;;;36.83;26.05;;;;;;;7.41;73.82;99667.25;126624;1098;23379;-75
2020/12/06 04:34:28;;;;;;;33.58;21.82;;;;;;;7.39;73.27;99657.61;126681;1098;23340;-75
2020/12/06 04:36:56;;;;;;;29.98;21.05;;;;;;;7.37;73.04;99660.50;126671;1098;23526;-75
2020/12/06 04:39:24;;;;;;;26.80;20.32;;;;;;;7.36;73.56;99653.38;126656;1098;26914;-76
2020/12/06 04:41:52;;;;;;;35.33;22.98;;;;;;;7.35;73.59;99662.56;126701;1098;27958;-76
2020/12/06 04:44:21;;;;;;;29.75;19.42;;;;;;;7.35;73.88;99663.40;126686;1098;23473;-74
2020/12/06 04:46:49;;;;;;;36.77;23.92;;;;;;;7.35;73.55;99663.40;126677;1098;23321;-75
2020/12/06 04:49:42;;;;;;;33.98;22.45;;;;;;;7.35;73.71;99662.56;126629;1098;23355;-75
2020/12/06 04:52:19;;;;;;;28.02;18.02;;;;;;;7.35;73.55;99667.99;126687;1098;26402;-76
2020/12/06 04:55:02;;;;;;;30.40;18.80;;;;;;;7.38;73.96;99683.05;126666;1098;23434;-76
2020/12/06 04:57:30;;;;;;;27.35;19.00;;;;;;;7.36;73.35;99686.80;126634;1098;24824;-75
2020/12/06 05:00:08;;;;;;;30.12;19.67;;;;;;;7.38;73.29;99683.88;126692;1098;23782;-74
2020/12/06 05:02:46;;;;;;;28.75;19.17;;;;;;;7.41;74.09;99688.95;126674;1098;23328;-75
2020/12/06 05:05:15;;;;;;;29.00;19.25;;;;;;;7.43;73.64;99694.20;126722;1098;23400;-74
2020/12/06 05:07:45;;;;;;;35.10;21.80;;;;;;;7.43;73.56;99688.77;126785;1098;23325;-75
2020/12/06 05:10:13;;;;;;;25.10;18.62;;;;;;;7.42;73.71;99690.63;126697;1098;25083;-75
2020/12/06 05:12:41;;;;;;;35.23;22.50;;;;;;;7.43;73.70;99695.04;126766;1098;26892;-74
2020/12/06 05:15:09;;;;;;;28.47;20.30;;;;;;;7.42;73.50;99696.05;126747;1098;23429;-74
2020/12/06 05:17:37;;;;;;;29.15;21.17;;;;;;;7.42;73.32;99689.79;126720;1098;23331;-75
2020/12/06 05:20:10;;;;;;;27.87;21.37;;;;;;;7.41;73.57;99683.52;126726;1099;23333;-75
2020/12/06 05:22:46;;;;;;;29.98;20.80;;;;;;;7.40;73.41;99692.68;126688;1099;23578;-75
2020/12/06 05:25:16;;;;;;;35.83;22.17;;;;;;;7.35;73.74;99687.81;126695;1098;23417;-74
2020/12/06 05:27:44;;;;;;;31.10;21.33;;;;;;;7.34;73.31;99683.44;126651;1098;27744;-74
2020/12/06 05:30:13;;;;;;;31.97;22.40;;;;;;;7.32;72.96;99680.06;126709;1098;26779;-74
2020/12/06 05:32:42;;;;;;;28.87;20.07;;;;;;;7.31;73.34;99678.36;126597;1098;26377;-77
2020/12/06 05:35:12;;;;;;;32.40;19.85;;;;;;;7.31;73.92;99680.24;126404;1098;23403;-75
2020/12/06 05:37:42;;;;;;;28.50;20.80;;;;;;;7.27;73.81;99687.91;126587;1098;23411;-75
2020/12/06 05:40:16;;;;;;;27.43;19.00;;;;;;;7.25;73.96;99683.70;126786;1098;23414;-75
2020/12/06 05:42:46;;;;;;;30.48;19.30;;;;;;;7.24;73.86;99687.45;126648;1098;23414;-74
2020/12/06 05:45:19;;;;;;;28.85;20.77;;;;;;;7.22;73.65;99678.66;126721;1098;23326;-74
2020/12/06 05:47:47;;;;;;;28.07;20.37;;;;;;;7.22;73.68;99684.09;126682;1099;23430;-73
2020/12/06 05:50:15;;;;;;;32.05;19.92;;;;;;;7.23;74.33;99683.05;126590;1098;23366;-74
2020/12/06 05:52:44;;;;;;;34.67;21.87;;;;;;;7.23;73.83;99685.75;126667;1098;23339;-76
2020/12/06 05:55:12;;;;;;;26.00;18.07;;;;;;;7.21;73.90;99688.67;126489;1099;23491;-75
2020/12/06 05:57:45;;;;;;;28.80;20.60;;;;;;;7.20;74.18;99686.98;126446;1098;24934;-78
2020/12/06 06:00:15;;;;;;;29.72;20.97;;;;;;;7.19;73.96;99679.88;126574;1098;25048;-75
2020/12/06 06:02:47;;;;;;;26.60;21.17;;;;;;;7.19;74.21;99681.73;126534;1098;26893;-75
2020/12/06 06:05:22;;;;;;;35.17;20.55;;;;;;;7.19;73.54;99689.87;126696;1098;23395;-74
2020/12/06 06:07:54;;;;;;;31.68;22.05;;;;;;;7.19;73.95;99693.45;126646;1099;23431;-75
2020/12/06 06:10:30;;;;;;;29.07;20.57;;;;;;;7.21;73.54;99685.09;126622;1099;23366;-76
2020/12/06 06:13:02;;;;;;;30.35;22.73;;;;;;;7.20;74.58;99700.54;126330;1098;26647;-77
2020/12/06 06:15:31;;;;;;;;;;;;;;;7.21;74.48;99693.23;126743;1098;23362;-75
2020/12/06 06:18:01;;;;;;;29.40;20.88;;;;;;;7.20;73.90;99697.83;126608;1098;21509;-73
2020/12/06 06:20:30;;;;;;;32.67;22.75;;;;;;;7.24;74.25;99701.02;126654;1098;23321;-73
2020/12/06 06:23:01;;;;;;;27.98;19.40;;;;;;;7.26;74.52;99698.97;126651;1098;23382;-75
2020/12/06 06:25:30;;;;;;;35.17;22.40;;;;;;;7.28;74.05;99702.34;126747;1098;23385;-75
2020/12/06 06:27:58;;;;;;;33.60;23.18;;;;;;;7.29;73.72;99706.72;126716;1098;24756;-75
2020/12/06 06:30:27;;;;;;;31.00;22.00;;;;;;;7.32;73.86;99701.77;126655;1098;23396;-75
2020/12/06 06:32:55;;;;;;;30.35;22.32;;;;;;;7.34;73.70;99705.14;126618;1098;26786;-74
2020/12/06 06:35:24;;;;;;;35.17;23.50;;;;;;;7.36;73.64;99707.65;126682;1098;23422;-74
2020/12/06 06:37:54;;;;;;;34.75;22.27;;;;;;;7.38;73.73;99716.45;126599;1098;26382;-77
2020/12/06 06:40:26;;;;;;;28.42;19.75;;;;;;;7.42;74.08;99728.61;126450;1098;23422;-77
2020/12/06 06:42:55;;;;;;;30.17;20.77;;;;;;;7.44;73.61;99710.27;126666;1099;23339;-71
2020/12/06 06:45:26;;;;;;;33.55;21.75;;;;;;;7.47;74.11;99723.48;126741;1099;23339;-75
2020/12/06 06:47:55;;;;;;;30.07;19.40;;;;;;;7.50;74.07;99731.24;126617;1098;25201;-74
2020/12/06 06:50:24;;;;;;;27.15;18.95;;;;;;;7.51;74.19;99724.80;126737;1098;23460;-76
2020/12/06 06:52:56;;;;;;;30.90;19.60;;;;;;;7.51;73.41;99726.65;126723;1099;23328;-74
2020/12/06 06:55:27;;;;;;;29.27;21.87;;;;;;;7.49;73.40;99721.43;126640;1098;23328;-77
2020/12/06 06:57:57;;;;;;;41.20;23.10;;;;;;;7.48;73.95;99727.03;126636;1098;27954;-75
2020/12/06 07:00:30;;;;;;;28.47;19.40;;;;;;;7.50;73.76;99722.27;126629;1098;23325;-77
2020/12/06 07:02:58;;;;;;;27.45;18.75;;;;;;;7.52;73.50;99733.78;126581;1098;23395;-76
2020/12/06 07:05:26;;;;;;;28.27;20.90;;;;;;;7.54;73.44;99726.29;126541;1099;23329;-76
2020/12/06 07:07:55;;;;;;;27.48;18.40;;;;;;;7.53;73.46;99722.74;126781;1098;23428;-75
2020/12/06 07:10:28;;;;;;;26.57;19.02;;;;;;;7.54;74.07;99713.55;126699;1098;23328;-76
2020/12/06 07:12:59;;;;;;;29.45;20.68;;;;;;;7.55;73.40;99723.40;126375;1100;23428;-75
2020/12/06 07:15:28;;;;;;;26.52;18.67;;;;;;;7.56;73.44;99716.92;126688;1098;23382;-76
2020/12/06 07:17:57;;;;;;;26.35;18.17;;;;;;;7.60;73.85;99709.27;126699;1098;26405;-73
2020/12/06 07:20:28;;;;;;;26.75;16.77;;;;;;;7.60;73.67;99722.00;126717;1098;27486;-77
2020/12/06 07:22:56;;;;;;;24.98;17.32;;;;;;;7.61;73.41;99721.78;126657;1098;26490;-76
2020/12/06 07:25:26;;;;;;;27.53;20.73;;;;;;;7.61;73.66;99720.95;126562;1098;23327;-76
2020/12/06 07:27:54;;;;;;;27.87;19.87;;;;;;;7.61;73.25;99712.81;126524;1098;26563;-77
2020/12/06 07:30:23;;;;;;;30.72;20.17;;;;;;;7.62;73.87;99717.19;126702;1098;23463;-75
2020/12/06 07:32:59;;;;;;;29.40;19.98;;;;;;;7.64;73.20;99718.72;126630;1098;23473;-76
2020/12/06 07:35:27;;;;;;;41.25;26.00;;;;;;;7.64;73.62;99724.14;126753;1098;23466;-76
2020/12/06 07:37:56;;;;;;;45.08;31.73;;;;;;;7.65;73.37;99712.23;126509;1098;26437;-77
2020/12/06 07:40:25;;;;;;;41.42;22.37;;;;;;;7.68;73.45;99727.30;126682;1098;23382;-74
2020/12/06 07:42:54;;;;;;;36.70;20.17;;;;;;;7.71;73.49;99726.94;126568;1098;23462;-77
2020/12/06 07:45:25;;;;;;;34.95;21.75;;;;;;;7.73;73.26;99733.03;126663;1098;23428;-76
2020/12/06 07:47:54;;;;;;;29.25;18.40;;;;;;;7.75;73.12;99728.25;126781;1098;23375;-74
2020/12/06 07:50:23;;;;;;;28.90;18.82;;;;;;;7.76;73.06;99724.49;126697;1098;26949;-75
2020/12/06 07:52:51;;;;;;;31.52;18.00;;;;;;;7.76;73.48;99721.78;126614;1098;23382;-79
2020/12/06 07:55:20;;;;;;;29.87;20.83;;;;;;;7.77;73.72;99726.19;126740;1098;23478;-75
2020/12/06 07:57:58;;;;;;;30.37;20.95;;;;;;;7.83;73.23;99721.86;126665;1099;28015;-75
2020/12/06 08:00:37;;;;;;;35.00;22.17;;;;;;;7.85;73.19;99733.38;126654;1098;23469;-76
2020/12/06 08:03:07;;;;;;;32.25;19.60;;;;;;;7.89;73.43;99718.39;126713;1098;23428;-77
2020/12/06 08:05:39;;;;;;;25.27;17.20;;;;;;;7.90;73.63;99725.52;126480;1098;26824;-78
2020/12/06 08:08:14;;;;;;;24.75;17.45;;;;;;;7.91;73.40;99724.48;126650;1098;23325;-77
2020/12/06 08:10:43;;;;;;;32.40;21.23;;;;;;;7.93;73.59;99730.56;126597;1098;23533;-77
2020/12/06 08:13:12;;;;;;;27.02;19.10;;;;;;;7.95;73.37;99723.91;126680;1098;23487;-77
2020/12/06 08:15:41;;;;;;;28.57;18.85;;;;;;;7.97;73.30;99732.70;126228;1099;23332;-76
2020/12/06 08:18:20;;;;;;;35.08;22.13;;;;;;;8.00;73.13;99738.79;126413;1098;23395;-78
2020/12/06 08:20:55;;;;;;;31.95;21.65;;;;;;;8.01;73.11;99730.45;126545;1099;25041;-77
2020/12/06 08:23:37;;;;;;;33.35;22.02;;;;;;;8.03;73.42;99724.84;126595;1099;27675;-76
2020/12/06 08:26:05;;;;;;;34.85;20.68;;;;;;;8.06;73.30;99724.45;126658;1098;23359;-78
2020/12/06 08:28:35;;;;;;;32.25;21.33;;;;;;;8.10;73.17;99729.30;126278;1099;23540;-78
2020/12/06 08:31:20;;;;;;;39.65;24.40;;;;;;;8.10;73.25;99731.19;126560;1099;26788;-75
2020/12/06 08:33:49;;;;;;;35.55;21.45;;;;;;;8.12;73.15;99721.81;127002;1099;23437;-76
2020/12/06 08:36:24;;;;;;;31.45;20.20;;;;;;;8.15;72.45;99726.02;126735;1098;23498;-77
2020/12/06 08:38:53;;;;;;;31.70;21.87;;;;;;;8.16;72.79;99720.39;126535;1099;23511;-78
2020/12/06 08:41:25;;;;;;;29.70;19.35;;;;;;;8.18;73.10;99733.80;126472;1098;23328;-75
2020/12/06 08:44:04;;;;;;;29.53;20.43;;;;;;;8.20;72.57;99731.73;126630;1098;23324;-78
2020/12/06 08:46:33;;;;;;;29.87;19.65;;;;;;;8.21;72.89;99727.97;126706;1099;23385;-76
2020/12/06 08:49:16;;;;;;;28.02;20.02;;;;;;;8.23;72.95;99730.50;126572;1098;23382;-77
2020/12/06 08:51:53;;;;;;;33.23;22.52;;;;;;;8.24;72.03;99727.60;126665;1098;23328;-77
2020/12/06 08:54:35;;;;;;;35.52;23.07;;;;;;;8.26;72.45;99725.53;126656;1098;23383;-77
2020/12/06 08:57:09;;;;;;;27.23;20.63;;;;;;;8.29;73.23;99730.57;126598;1098;23355;-78
2020/12/06 08:59:39;;;;;;;29.75;20.23;;;;;;;8.35;72.54;99739.84;126655;1098;26934;-76
2020/12/06 09:02:09;;;;;;;35.97;23.07;;;;;;;8.45;72.80;99734.11;126701;1098;26861;-76
2020/12/06 09:04:37;;;;;;;35.08;22.90;;;;;;;8.55;73.51;99735.47;126316;1099;23394;-76
2020/12/06 09:07:08;;;;;;;37.30;22.20;;;;;;;8.68;73.19;99720.34;126263;1099;26526;-75
2020/12/06 09:09:36;;;;;;;37.58;25.00;;;;;;;8.82;73.02;99718.59;126617;1098;23547;-76
2020/12/06 09:12:05;;;;;;;31.35;23.85;;;;;;;8.94;72.69;99720.59;126663;1098;23367;-77
2020/12/06 09:14:37;;;;;;;34.83;22.50;;;;;;;9.06;72.33;99720.88;126367;1099;23339;-78
2020/12/06 09:17:05;;;;;;;35.23;23.45;;;;;;;9.18;71.62;99713.03;126606;1098;23378;-79
2020/12/06 09:19:33;;;;;;;29.52;21.23;;;;;;;9.29;72.30;99719.80;126763;1098;23395;-75
2020/12/06 09:22:03;;;;;;;25.65;19.62;;;;;;;9.42;71.75;99716.33;126658;1098;23382;-76
2020/12/06 09:24:31;;;;;;;62.17;41.60;;;;;;;9.55;71.96;99724.57;126642;1098;23391;-76
2020/12/06 09:26:59;;;;;;;65.25;31.33;;;;;;;9.67;71.09;99705.80;126752;1098;23399;-79
2020/12/06 09:29:28;;;;;;;36.68;22.45;;;;;;;9.80;71.66;99711.30;126638;1098;27726;-75
2020/12/06 09:31:57;;;;;;;26.37;16.00;;;;;;;9.92;70.92;99704.24;126695;1098;23392;-75
2020/12/06 09:34:26;;;;;;;31.07;18.87;;;;;;;9.98;70.26;99710.75;126582;1099;26434;-77
2020/12/06 09:36:54;;;;;;;33.80;21.90;;;;;;;10.03;69.92;99713.72;126581;1099;25033;-76
2020/12/06 09:39:22;;;;;;;24.70;17.02;;;;;;;10.10;69.73;99711.02;126673;1098;23337;-75
2020/12/06 09:41:50;;;;;;;35.68;22.70;;;;;;;10.17;69.73;99707.25;126706;1098;23344;-76
2020/12/06 09:44:19;;;;;;;35.88;23.02;;;;;;;10.23;69.72;99720.06;126649;1098;23342;-75
2020/12/06 09:46:47;;;;;;;32.63;21.82;;;;;;;10.30;68.84;99720.11;126644;1098;23325;-77
2020/12/06 09:49:15;;;;;;;37.85;22.87;;;;;;;10.38;69.38;99714.47;126657;1098;27149;-76
2020/12/06 09:51:43;;;;;;;33.37;23.20;;;;;;;10.54;69.79;99717.86;126596;1098;23382;-77
2020/12/06 09:54:11;;;;;;;26.70;18.62;;;;;;;10.64;69.20;99707.39;126621;1098;23379;-74
2020/12/06 09:56:40;;;;;;;35.05;19.10;;;;;;;10.73;68.50;99702.57;126660;1099;26558;-76
2020/12/06 09:59:08;;;;;;;29.52;19.48;;;;;;;10.79;67.59;99710.76;126732;1098;26888;-75
2020/12/06 10:01:36;;;;;;;28.15;18.57;;;;;;;10.85;67.53;99717.28;126700;1098;23392;-75
2020/12/06 10:04:05;;;;;;;30.60;20.30;;;;;;;10.92;68.03;99703.63;126477;1098;23340;-74
2020/12/06 10:06:34;;;;;;;29.20;21.10;;;;;;;11.01;67.51;99713.31;127605;1099;23375;-74
2020/12/06 10:09:03;;;;;;;25.13;17.90;;;;;;;11.12;67.91;99692.73;126759;1098;23403;-75
2020/12/06 10:11:32;;;;;;;25.10;18.10;;;;;;;11.20;67.73;99684.30;126754;1098;23376;-74
2020/12/06 10:14:00;;;;;;;25.00;15.72;;;;;;;11.33;66.99;99677.97;126702;1098;23327;-75
2020/12/06 10:16:28;;;;;;;25.10;15.68;;;;;;;11.43;66.43;99675.64;126462;1098;23440;-75
2020/12/06 10:18:57;;;;;;;20.88;13.62;;;;;;;11.48;66.52;99664.08;126743;1099;23546;-74
2020/12/06 10:21:25;;;;;;;28.90;20.12;;;;;;;11.55;66.24;99654.82;126644;1098;23455;-77
2020/12/06 10:23:53;;;;;;;30.50;21.75;;;;;;;11.62;65.93;99654.80;126728;1098;23316;-78
2020/12/06 10:26:22;;;;;;;26.60;20.08;;;;;;;11.68;66.09;99674.96;126611;1098;24951;-79
2020/12/06 10:28:50;;;;;;;22.30;15.72;;;;;;;11.70;66.00;99661.92;126759;1098;23383;-76
2020/12/06 10:31:19;;;;;;;25.20;15.98;;;;;;;11.75;65.64;99667.56;126635;1098;23420;-77
2020/12/06 10:33:47;;;;;;;25.60;17.40;;;;;;;11.80;65.25;99651.38;126729;1098;23379;-75
2020/12/06 10:36:15;;;;;;;22.77;14.77;;;;;;;11.91;65.38;99653.45;126727;1098;23379;-75
2020/12/06 10:38:44;;;;;;;21.05;15.55;;;;;;;12.07;65.22;99646.64;126609;1098;27899;-73
2020/12/06 10:41:12;;;;;;;30.80;19.12;;;;;;;12.25;65.36;99643.19;126691;1098;23491;-75
2020/12/06 10:43:40;;;;;;;33.40;22.30;;;;;;;12.47;65.13;99649.13;126750;1098;23328;-73
2020/12/06 10:46:09;;;;;;;37.67;23.95;;;;;;;12.72;65.32;99646.42;126656;1098;23379;-75
2020/12/06 10:48:37;;;;;;;29.18;19.50;;;;;;;13.11;64.37;99651.77;126670;1098;23395;-73
2020/12/06 10:51:05;;;;;;;29.15;19.32;;;;;;;13.64;65.30;99646.59;126723;1098;26431;-75
2020/12/06 10:53:34;;;;;;;20.50;15.72;;;;;;;14.15;64.45;99652.70;126746;1098;23324;-74
2020/12/06 10:56:03;;;;;;;21.63;17.33;;;;;;;14.82;63.86;99641.56;126707;1098;23321;-74
2020/12/06 10:58:31;;;;;;;21.37;15.67;;;;;;;15.49;62.56;99641.22;126717;1098;23371;-74
2020/12/06 11:00:59;;;;;;;19.63;15.10;;;;;;;15.84;60.57;99636.74;126739;1098;23371;-75
2020/12/06 11:03:27;;;;;;;21.35;14.65;;;;;;;16.06;59.25;99639.65;126742;1098;23390;-73
2020/12/06 11:05:56;;;;;;;20.05;14.43;;;;;;;15.65;56.33;99631.37;126778;1098;23379;-74
2020/12/06 11:08:25;;;;;;;30.82;19.98;;;;;;;15.03;56.68;99639.33;126683;1098;23325;-73
2020/12/06 11:10:53;;;;;;;22.95;16.35;;;;;;;14.82;57.53;99638.81;126470;1098;26402;-75
2020/12/06 11:13:21;;;;;;;27.50;20.08;;;;;;;14.68;57.58;99645.63;126628;1098;25039;-74
2020/12/06 11:17:59;;;;;;;25.70;17.65;;;;;;;14.61;57.81;99640.20;126654;1098;23351;-75
2020/12/06 11:20:27;;;;;;;26.25;16.85;;;;;;;14.31;57.48;99623.76;126195;1101;23477;-74
2020/12/06 11:22:57;;;;;;;27.37;18.37;;;;;;;13.97;57.23;99628.05;126258;1101;27369;-74
2020/12/06 11:25:26;;;;;;;21.07;15.80;;;;;;;13.72;57.99;99629.02;126255;1101;23328;-74
2020/12/06 11:27:54;;;;;;;26.17;16.02;;;;;;;13.44;58.40;99624.91;126330;1101;26836;-74
2020/12/06 11:30:23;;;;;;;24.07;15.60;;;;;;;13.14;58.39;99615.70;126218;1101;23325;-73